To NAV CANADA Home Page Login to a new session Search on AWWS site Feedback and Comments Disclaimer Vers la page française équivalente Tips FAQ What's new on the site To the Forecasts and Observations / NOTAM section To "File a Flight Plan" website Publications and other links Update of the User's profile FIC Telephone Numbers My Weather Data Folder Route Weather Data Regional Weather Data Local Weather Data To the Forecasts and Observations / NOTAM section
Request Generated 06/26/2017 at 22:36:16 UTC . Weather information available at that time is displayed.

METAR/TAF

FORT CHIPEWYAN/AB    (show WxCam)

METAR CYPY 262200Z AUTO 13009G15KT 090V170 9SM BKN150 28/09 A2962 RMK
SLP034 DENSITY ALT 2700FT=
METAR CYPY 262100Z AUTO 16010G17KT 110V200 9SM FEW130 29/08 A2964 RMK
SLP041 DENSITY ALT 2800FT=
METAR CYPY 262000Z AUTO 14010G17KT 110V180 9SM BKN180 28/08 A2966 RMK
SLP048 DENSITY ALT 2700FT=

TAF CYPY 261738Z 2618/2706 15012G22KT P6SM SCT230
FM270000 13012G22KT P6SM SCT100 TEMPO 2700/2706 P6SM -SHRA BKN100
PROB30 2700/2706 VRB15G25KT 5SM TSRA BR BKN100CB
RMK FCST BASED ON AUTO OBS. NXT FCST BY 270000Z=
Your time UTC time
Weather data provided by Environment Canada and NAV CANADA